OCN408 EDDF-LBWN
Flight info
| Callsign | OCN408 |
|---|---|
| Flight time | 2h 16m |
| Altitude | 37000 |
| Route | CINDY2D CINDY Z74 LAMPU DCT NOMBO Y161 MAH DCT LATLO DCT OBEDI DCT BEDOX DCT TUVAR DCT ETIDA DCT GOGAR DCT XANEX N605 DICXA |
| Aircraft | A320/M-SDE3FGHIRWY/LB1 |
Departure
| Time | 2026-05-08 08:42 |
|---|---|
| Airport | Frankfurt Main Airport (EDDF) |
Arrival
| Time | 2026-05-08 10:58 |
|---|---|
| Airport | Varna Airport (LBWN) |
| Time | Latitude | Longitude | Altitude | Speed | Heading |
|---|---|---|---|---|---|
| 2026-05-08 08:30 | 50.04064 | 8.55618 | 349 ft | 0 kts | 160° |
| 2026-05-08 08:37 | 50.04061 | 8.55620 | 350 ft | 2 kts | 160° |
| 2026-05-08 08:38 | 50.04026 | 8.55640 | 348 ft | 8 kts | 160° |
| 2026-05-08 08:38 | 50.03966 | 8.55604 | 349 ft | 10 kts | 245° |
| 2026-05-08 08:38 | 50.03940 | 8.55494 | 354 ft | 12 kts | 251° |
| 2026-05-08 08:38 | 50.03899 | 8.55321 | 351 ft | 23 kts | 249° |
| 2026-05-08 08:39 | 50.03834 | 8.55054 | 347 ft | 27 kts | 250° |
| 2026-05-08 08:39 | 50.03765 | 8.54771 | 341 ft | 29 kts | 250° |
| 2026-05-08 08:39 | 50.03696 | 8.54478 | 339 ft | 28 kts | 249° |
| 2026-05-08 08:39 | 50.03646 | 8.54306 | 335 ft | 12 kts | 210° |
| 2026-05-08 08:40 | 50.03594 | 8.54317 | 335 ft | 4 kts | 158° |
| 2026-05-08 08:40 | 50.03579 | 8.54326 | 335 ft | 0 kts | 158° |
| 2026-05-08 08:40 | 50.03568 | 8.54333 | 335 ft | 3 kts | 158° |
| 2026-05-08 08:41 | 50.03533 | 8.54355 | 336 ft | 6 kts | 158° |
| 2026-05-08 08:41 | 50.03498 | 8.54376 | 337 ft | 4 kts | 159° |
| 2026-05-08 08:41 | 50.03488 | 8.54413 | 337 ft | 3 kts | 67° |
| 2026-05-08 08:41 | 50.03488 | 8.54414 | 337 ft | 0 kts | 67° |
| 2026-05-08 08:42 | 50.03531 | 8.54583 | 339 ft | 52 kts | 70° |
| 2026-05-08 08:42 | 50.03749 | 8.55501 | 344 ft | 125 kts | 71° |
| 2026-05-08 08:42 | 50.04114 | 8.57018 | 586 ft | 162 kts | 70° |
| 2026-05-08 08:42 | 50.04507 | 8.58664 | 1332 ft | 165 kts | 71° |
| 2026-05-08 08:43 | 50.04860 | 8.60306 | 2176 ft | 165 kts | 72° |
| 2026-05-08 08:43 | 50.05222 | 8.62059 | 2779 ft | 179 kts | 72° |
| 2026-05-08 08:43 | 50.05391 | 8.64025 | 3302 ft | 197 kts | 101° |
| 2026-05-08 08:43 | 50.04672 | 8.65941 | 3798 ft | 220 kts | 131° |
| 2026-05-08 08:44 | 50.03563 | 8.67710 | 4348 ft | 241 kts | 134° |
| 2026-05-08 08:44 | 50.02336 | 8.69631 | 4978 ft | 259 kts | 133° |
| 2026-05-08 08:44 | 50.01073 | 8.71708 | 5770 ft | 270 kts | 132° |
| 2026-05-08 08:44 | 49.99823 | 8.73844 | 6714 ft | 273 kts | 132° |
| 2026-05-08 08:45 | 49.98563 | 8.76050 | 7640 ft | 277 kts | 131° |
| 2026-05-08 08:45 | 49.97296 | 8.78301 | 8523 ft | 282 kts | 131° |
| 2026-05-08 08:45 | 49.96006 | 8.80606 | 9388 ft | 287 kts | 132° |
| 2026-05-08 08:45 | 49.94712 | 8.82928 | 10231 ft | 291 kts | 132° |
| 2026-05-08 08:46 | 49.93368 | 8.85338 | 10902 ft | 303 kts | 132° |
| 2026-05-08 08:46 | 49.91967 | 8.87849 | 11425 ft | 318 kts | 132° |
| 2026-05-08 08:46 | 49.90506 | 8.90470 | 12169 ft | 324 kts | 131° |
| 2026-05-08 08:46 | 49.89027 | 8.93126 | 12988 ft | 328 kts | 131° |
| 2026-05-08 08:47 | 49.87528 | 8.95818 | 13769 ft | 331 kts | 131° |
| 2026-05-08 08:47 | 49.86011 | 8.98541 | 14506 ft | 336 kts | 131° |
| 2026-05-08 08:47 | 49.84481 | 9.01282 | 15209 ft | 341 kts | 132° |
| 2026-05-08 08:47 | 49.82937 | 9.04045 | 15883 ft | 346 kts | 132° |
| 2026-05-08 08:48 | 49.81348 | 9.06884 | 16551 ft | 351 kts | 132° |
| 2026-05-08 08:48 | 49.79740 | 9.09753 | 17218 ft | 355 kts | 132° |
| 2026-05-08 08:48 | 49.78135 | 9.12613 | 17881 ft | 358 kts | 132° |
| 2026-05-08 08:48 | 49.76490 | 9.15542 | 18529 ft | 362 kts | 132° |
| 2026-05-08 08:49 | 49.74853 | 9.18453 | 19164 ft | 365 kts | 132° |
| 2026-05-08 08:49 | 49.73167 | 9.21448 | 19793 ft | 369 kts | 132° |
| 2026-05-08 08:49 | 49.71491 | 9.24416 | 20403 ft | 372 kts | 132° |
| 2026-05-08 08:49 | 49.69773 | 9.27455 | 21010 ft | 376 kts | 132° |
| 2026-05-08 08:50 | 49.68072 | 9.30461 | 21598 ft | 379 kts | 132° |
| 2026-05-08 08:50 | 49.66327 | 9.33540 | 22176 ft | 383 kts | 132° |
| 2026-05-08 08:50 | 49.64578 | 9.36623 | 22743 ft | 386 kts | 132° |
| 2026-05-08 08:50 | 49.62743 | 9.39671 | 23291 ft | 388 kts | 137° |
| 2026-05-08 08:51 | 49.60698 | 9.42346 | 23831 ft | 390 kts | 145° |
| 2026-05-08 08:51 | 49.58426 | 9.44651 | 24364 ft | 391 kts | 150° |
| 2026-05-08 08:51 | 49.56113 | 9.46772 | 24888 ft | 394 kts | 151° |
| 2026-05-08 08:51 | 49.53731 | 9.48921 | 25412 ft | 396 kts | 151° |
| 2026-05-08 08:52 | 49.51366 | 9.51058 | 25911 ft | 399 kts | 151° |
| 2026-05-08 08:52 | 49.48966 | 9.53233 | 26402 ft | 401 kts | 151° |
| 2026-05-08 08:52 | 49.46579 | 9.55401 | 26877 ft | 403 kts | 151° |
| 2026-05-08 08:52 | 49.44178 | 9.57584 | 27343 ft | 405 kts | 151° |
| 2026-05-08 08:53 | 49.41726 | 9.59814 | 27798 ft | 408 kts | 151° |
| 2026-05-08 08:53 | 49.39298 | 9.62018 | 28232 ft | 410 kts | 151° |
| 2026-05-08 08:53 | 49.36821 | 9.64310 | 28652 ft | 413 kts | 149° |
| 2026-05-08 08:53 | 49.34459 | 9.66828 | 29048 ft | 417 kts | 146° |
| 2026-05-08 08:54 | 49.32201 | 9.69666 | 29439 ft | 421 kts | 141° |
| 2026-05-08 08:54 | 49.30100 | 9.72738 | 29815 ft | 424 kts | 138° |
| 2026-05-08 08:54 | 49.28006 | 9.75937 | 30189 ft | 426 kts | 137° |
| 2026-05-08 08:54 | 49.25906 | 9.79159 | 30547 ft | 429 kts | 137° |
| 2026-05-08 08:55 | 49.23812 | 9.82365 | 30889 ft | 431 kts | 137° |
| 2026-05-08 08:55 | 49.21684 | 9.85613 | 31219 ft | 432 kts | 137° |
| 2026-05-08 08:55 | 49.19555 | 9.88854 | 31541 ft | 434 kts | 138° |
| 2026-05-08 08:55 | 49.17420 | 9.92097 | 31850 ft | 435 kts | 138° |
| 2026-05-08 08:56 | 49.15270 | 9.95357 | 32162 ft | 437 kts | 138° |
| 2026-05-08 08:56 | 49.13119 | 9.98611 | 32442 ft | 439 kts | 138° |
| 2026-05-08 08:56 | 49.10948 | 10.01892 | 32705 ft | 441 kts | 138° |
| 2026-05-08 08:56 | 49.08757 | 10.05198 | 32974 ft | 443 kts | 138° |
| 2026-05-08 08:57 | 49.06563 | 10.08506 | 33231 ft | 444 kts | 137° |
| 2026-05-08 08:57 | 49.04361 | 10.11723 | 33478 ft | 445 kts | 139° |
| 2026-05-08 08:57 | 49.02094 | 10.14920 | 33788 ft | 445 kts | 140° |
| 2026-05-08 08:57 | 48.99828 | 10.18094 | 34122 ft | 444 kts | 140° |
| 2026-05-08 08:58 | 48.97559 | 10.21279 | 34449 ft | 443 kts | 140° |
| 2026-05-08 08:58 | 48.95314 | 10.24441 | 34768 ft | 441 kts | 140° |
| 2026-05-08 08:58 | 48.93077 | 10.27598 | 35015 ft | 440 kts | 140° |
| 2026-05-08 08:58 | 48.90830 | 10.30776 | 35230 ft | 440 kts | 140° |
| 2026-05-08 08:59 | 48.88591 | 10.33931 | 35417 ft | 441 kts | 140° |
| 2026-05-08 08:59 | 48.86351 | 10.37081 | 35560 ft | 442 kts | 140° |
| 2026-05-08 08:59 | 48.84110 | 10.40233 | 35690 ft | 443 kts | 139° |
| 2026-05-08 08:59 | 48.81898 | 10.43546 | 35813 ft | 446 kts | 136° |
| 2026-05-08 09:00 | 48.79793 | 10.46918 | 35940 ft | 447 kts | 136° |
| 2026-05-08 09:00 | 48.77652 | 10.50350 | 36061 ft | 448 kts | 136° |
| 2026-05-08 09:00 | 48.75502 | 10.53792 | 36185 ft | 450 kts | 136° |
| 2026-05-08 09:00 | 48.73365 | 10.57206 | 36345 ft | 451 kts | 136° |
| 2026-05-08 09:01 | 48.71222 | 10.60627 | 36499 ft | 452 kts | 136° |
| 2026-05-08 09:01 | 48.69054 | 10.64080 | 36657 ft | 453 kts | 136° |
| 2026-05-08 09:01 | 48.66883 | 10.67532 | 36815 ft | 454 kts | 137° |
| 2026-05-08 09:01 | 48.64703 | 10.70997 | 36963 ft | 455 kts | 137° |
| 2026-05-08 09:02 | 48.62522 | 10.74461 | 37084 ft | 456 kts | 137° |
| 2026-05-08 09:02 | 48.60352 | 10.77901 | 37088 ft | 457 kts | 137° |
| 2026-05-08 09:02 | 48.55978 | 10.84866 | 37095 ft | 458 kts | 137° |
| 2026-05-08 09:03 | 48.51635 | 10.91817 | 37097 ft | 458 kts | 137° |
| 2026-05-08 09:03 | 48.47242 | 10.98787 | 37099 ft | 458 kts | 137° |
| 2026-05-08 09:04 | 48.42836 | 11.05650 | 37099 ft | 458 kts | 137° |
| 2026-05-08 09:04 | 48.38426 | 11.12500 | 37097 ft | 458 kts | 137° |
| 2026-05-08 09:05 | 48.33989 | 11.19380 | 37095 ft | 459 kts | 137° |
| 2026-05-08 09:05 | 48.29606 | 11.26276 | 37095 ft | 460 kts | 135° |
| 2026-05-08 09:06 | 48.25614 | 11.33821 | 37096 ft | 464 kts | 128° |
| 2026-05-08 09:06 | 48.22222 | 11.42003 | 37095 ft | 467 kts | 123° |
| 2026-05-08 09:07 | 48.19040 | 11.50433 | 37092 ft | 467 kts | 122° |
| 2026-05-08 09:07 | 48.15836 | 11.58890 | 37083 ft | 467 kts | 122° |
| 2026-05-08 09:08 | 48.12613 | 11.67350 | 37075 ft | 467 kts | 123° |
| 2026-05-08 09:08 | 48.09401 | 11.75753 | 37073 ft | 467 kts | 124° |
| 2026-05-08 09:09 | 48.06181 | 11.84141 | 37070 ft | 467 kts | 123° |
| 2026-05-08 09:09 | 48.02965 | 11.92492 | 37080 ft | 467 kts | 124° |
| 2026-05-08 09:10 | 47.99733 | 12.00860 | 37081 ft | 468 kts | 124° |
| 2026-05-08 09:10 | 47.96487 | 12.09237 | 37073 ft | 469 kts | 124° |
| 2026-05-08 09:11 | 47.93218 | 12.17646 | 37083 ft | 469 kts | 124° |
| 2026-05-08 09:11 | 47.89944 | 12.26051 | 37088 ft | 469 kts | 124° |
| 2026-05-08 09:12 | 47.86681 | 12.34384 | 37069 ft | 469 kts | 124° |
| 2026-05-08 09:12 | 47.83396 | 12.42761 | 37073 ft | 469 kts | 124° |
| 2026-05-08 09:13 | 47.80102 | 12.51128 | 37085 ft | 469 kts | 124° |
| 2026-05-08 09:13 | 47.76822 | 12.59436 | 37087 ft | 470 kts | 124° |
| 2026-05-08 09:14 | 47.73500 | 12.67821 | 37094 ft | 470 kts | 124° |
| 2026-05-08 09:14 | 47.70108 | 12.76060 | 37091 ft | 468 kts | 128° |
| 2026-05-08 09:15 | 47.66198 | 12.83656 | 37097 ft | 464 kts | 136° |
| 2026-05-08 09:15 | 47.61760 | 12.90515 | 37099 ft | 461 kts | 140° |
| 2026-05-08 09:16 | 47.57210 | 12.97208 | 37106 ft | 461 kts | 140° |
| 2026-05-08 09:16 | 47.52705 | 13.03835 | 37105 ft | 460 kts | 140° |
| 2026-05-08 09:17 | 47.48140 | 13.10543 | 37111 ft | 461 kts | 140° |
| 2026-05-08 09:17 | 47.43618 | 13.17173 | 37101 ft | 461 kts | 140° |
| 2026-05-08 09:18 | 47.39065 | 13.23831 | 37097 ft | 461 kts | 140° |
| 2026-05-08 09:18 | 47.34643 | 13.30653 | 37095 ft | 464 kts | 135° |
| 2026-05-08 09:19 | 47.30732 | 13.38169 | 37105 ft | 468 kts | 128° |
| 2026-05-08 09:19 | 47.27303 | 13.46351 | 37104 ft | 470 kts | 125° |
| 2026-05-08 09:20 | 47.23960 | 13.54572 | 37101 ft | 470 kts | 125° |
| 2026-05-08 09:20 | 47.20616 | 13.62750 | 37106 ft | 470 kts | 125° |
| 2026-05-08 09:21 | 47.17224 | 13.71003 | 37099 ft | 470 kts | 126° |
| 2026-05-08 09:23 | 47.05389 | 13.99578 | 37088 ft | 470 kts | 126° |
| 2026-05-08 09:23 | 47.02013 | 14.07682 | 37097 ft | 469 kts | 126° |
| 2026-05-08 09:24 | 46.98609 | 14.15827 | 37104 ft | 468 kts | 126° |
| 2026-05-08 09:24 | 46.95211 | 14.23927 | 37115 ft | 468 kts | 126° |
| 2026-05-08 09:25 | 46.91825 | 14.31976 | 37110 ft | 468 kts | 126° |
| 2026-05-08 09:25 | 46.88396 | 14.40105 | 37104 ft | 470 kts | 126° |
| 2026-05-08 09:26 | 46.84958 | 14.48230 | 37107 ft | 470 kts | 126° |
| 2026-05-08 09:26 | 46.81546 | 14.56271 | 37103 ft | 470 kts | 126° |
| 2026-05-08 09:27 | 46.78106 | 14.64355 | 37110 ft | 470 kts | 126° |
| 2026-05-08 09:27 | 46.74652 | 14.72450 | 37106 ft | 469 kts | 127° |
| 2026-05-08 09:28 | 46.71225 | 14.80452 | 37104 ft | 469 kts | 127° |
| 2026-05-08 09:28 | 46.67775 | 14.88489 | 37105 ft | 469 kts | 127° |
| 2026-05-08 09:29 | 46.64320 | 14.96510 | 37103 ft | 469 kts | 127° |
| 2026-05-08 09:29 | 46.60843 | 15.04565 | 37096 ft | 469 kts | 127° |
| 2026-05-08 09:30 | 46.57400 | 15.12516 | 37095 ft | 469 kts | 127° |
| 2026-05-08 09:30 | 46.53926 | 15.20513 | 37097 ft | 470 kts | 127° |
| 2026-05-08 09:31 | 46.50430 | 15.28539 | 37099 ft | 471 kts | 127° |
| 2026-05-08 09:31 | 46.46937 | 15.36539 | 37100 ft | 471 kts | 127° |
| 2026-05-08 09:32 | 46.43431 | 15.44537 | 37105 ft | 471 kts | 127° |
| 2026-05-08 09:32 | 46.39952 | 15.52455 | 37109 ft | 470 kts | 127° |
| 2026-05-08 09:33 | 46.36445 | 15.60416 | 37113 ft | 470 kts | 127° |
| 2026-05-08 09:33 | 46.32934 | 15.68364 | 37102 ft | 470 kts | 127° |
| 2026-05-08 09:34 | 46.29419 | 15.76293 | 37101 ft | 469 kts | 127° |
| 2026-05-08 09:34 | 46.26065 | 15.84372 | 37103 ft | 472 kts | 122° |
| 2026-05-08 09:35 | 46.23192 | 15.92890 | 37107 ft | 473 kts | 119° |
| 2026-05-08 09:35 | 46.20371 | 16.01452 | 37100 ft | 474 kts | 119° |
| 2026-05-08 09:36 | 46.17540 | 16.09997 | 37109 ft | 474 kts | 120° |
| 2026-05-08 09:36 | 46.14718 | 16.18469 | 37102 ft | 474 kts | 120° |
| 2026-05-08 09:37 | 46.11863 | 16.27005 | 37104 ft | 474 kts | 120° |
| 2026-05-08 09:37 | 46.09004 | 16.35527 | 37104 ft | 474 kts | 120° |
| 2026-05-08 09:38 | 46.06141 | 16.44030 | 37106 ft | 473 kts | 120° |
| 2026-05-08 09:38 | 46.03273 | 16.52525 | 37116 ft | 473 kts | 120° |
| 2026-05-08 09:39 | 46.00399 | 16.61010 | 37105 ft | 474 kts | 120° |
| 2026-05-08 09:39 | 45.97508 | 16.69513 | 37102 ft | 474 kts | 120° |
| 2026-05-08 09:40 | 45.94622 | 16.77977 | 37097 ft | 473 kts | 120° |
| 2026-05-08 09:40 | 45.91728 | 16.86431 | 37090 ft | 473 kts | 120° |
| 2026-05-08 09:41 | 45.88837 | 16.94854 | 37081 ft | 474 kts | 120° |
| 2026-05-08 09:41 | 45.85927 | 17.03307 | 37081 ft | 474 kts | 120° |
| 2026-05-08 09:42 | 45.83015 | 17.11746 | 37088 ft | 474 kts | 120° |
| 2026-05-08 09:42 | 45.80094 | 17.20177 | 37091 ft | 474 kts | 121° |
| 2026-05-08 09:43 | 45.77166 | 17.28597 | 37080 ft | 474 kts | 121° |
| 2026-05-08 09:43 | 45.74233 | 17.37008 | 37081 ft | 474 kts | 120° |
| 2026-05-08 09:44 | 45.71292 | 17.45414 | 37081 ft | 474 kts | 120° |
| 2026-05-08 09:44 | 45.68349 | 17.53802 | 37080 ft | 474 kts | 120° |
| 2026-05-08 09:45 | 45.65397 | 17.62190 | 37080 ft | 475 kts | 120° |
| 2026-05-08 09:45 | 45.62434 | 17.70583 | 37077 ft | 474 kts | 121° |
| 2026-05-08 09:46 | 45.59471 | 17.78948 | 37075 ft | 474 kts | 121° |
| 2026-05-08 09:46 | 45.56504 | 17.87301 | 37076 ft | 474 kts | 121° |
| 2026-05-08 09:47 | 45.53530 | 17.95643 | 37075 ft | 473 kts | 121° |
| 2026-05-08 09:47 | 45.50550 | 18.03983 | 37066 ft | 474 kts | 121° |
| 2026-05-08 09:48 | 45.47564 | 18.12304 | 37068 ft | 473 kts | 121° |
| 2026-05-08 09:48 | 45.44575 | 18.20609 | 37060 ft | 473 kts | 121° |
| 2026-05-08 09:49 | 45.41584 | 18.28904 | 37054 ft | 473 kts | 121° |
| 2026-05-08 09:49 | 45.38585 | 18.37186 | 37052 ft | 473 kts | 121° |
| 2026-05-08 09:50 | 45.35583 | 18.45457 | 37057 ft | 472 kts | 121° |
| 2026-05-08 09:50 | 45.32574 | 18.53717 | 37058 ft | 473 kts | 121° |
| 2026-05-08 09:51 | 45.29560 | 18.61971 | 37049 ft | 472 kts | 121° |
| 2026-05-08 09:51 | 45.26534 | 18.70234 | 37047 ft | 472 kts | 121° |
| 2026-05-08 09:52 | 45.23509 | 18.78463 | 37050 ft | 472 kts | 121° |
| 2026-05-08 09:52 | 45.20502 | 18.86620 | 37046 ft | 471 kts | 122° |
| 2026-05-08 09:53 | 45.17473 | 18.94811 | 37046 ft | 471 kts | 122° |
| 2026-05-08 09:53 | 45.14437 | 19.02995 | 37051 ft | 470 kts | 122° |
| 2026-05-08 09:54 | 45.11319 | 19.11085 | 37050 ft | 469 kts | 124° |
| 2026-05-08 09:54 | 45.08074 | 19.19049 | 37048 ft | 469 kts | 124° |
| 2026-05-08 09:55 | 45.04259 | 19.28371 | 37052 ft | 469 kts | 124° |
| 2026-05-08 09:55 | 45.01559 | 19.34954 | 37053 ft | 469 kts | 124° |
| 2026-05-08 09:56 | 44.98294 | 19.42897 | 37048 ft | 469 kts | 124° |
| 2026-05-08 09:56 | 44.95030 | 19.50816 | 37045 ft | 468 kts | 124° |
| 2026-05-08 09:57 | 44.90130 | 19.62664 | 37045 ft | 468 kts | 124° |
| 2026-05-08 09:57 | 44.86837 | 19.70600 | 37046 ft | 468 kts | 124° |
| 2026-05-08 09:58 | 44.83557 | 19.78478 | 37050 ft | 468 kts | 125° |
| 2026-05-08 09:58 | 44.80277 | 19.86338 | 37054 ft | 467 kts | 125° |
| 2026-05-08 09:59 | 44.77016 | 19.94125 | 37052 ft | 467 kts | 125° |
| 2026-05-08 09:59 | 44.73726 | 20.01961 | 37054 ft | 466 kts | 125° |
| 2026-05-08 10:00 | 44.70438 | 20.09776 | 37057 ft | 466 kts | 125° |
| 2026-05-08 10:00 | 44.67144 | 20.17578 | 37057 ft | 466 kts | 124° |
| 2026-05-08 10:01 | 44.63843 | 20.25377 | 37054 ft | 466 kts | 124° |
| 2026-05-08 10:01 | 44.60539 | 20.33164 | 37055 ft | 466 kts | 125° |
| 2026-05-08 10:02 | 44.57229 | 20.40945 | 37057 ft | 466 kts | 125° |
| 2026-05-08 10:02 | 44.53913 | 20.48714 | 37056 ft | 466 kts | 125° |
| 2026-05-08 10:03 | 44.50596 | 20.56469 | 37054 ft | 466 kts | 124° |
| 2026-05-08 10:03 | 44.47269 | 20.64220 | 37057 ft | 466 kts | 125° |
| 2026-05-08 10:04 | 44.43941 | 20.71958 | 37056 ft | 465 kts | 125° |
| 2026-05-08 10:04 | 44.40607 | 20.79686 | 37057 ft | 466 kts | 126° |
| 2026-05-08 10:05 | 44.37264 | 20.87414 | 37054 ft | 466 kts | 126° |
| 2026-05-08 10:05 | 44.33922 | 20.95123 | 37052 ft | 465 kts | 126° |
| 2026-05-08 10:06 | 44.30571 | 21.02830 | 37053 ft | 465 kts | 126° |
| 2026-05-08 10:06 | 44.27216 | 21.10521 | 37055 ft | 466 kts | 126° |
| 2026-05-08 10:07 | 44.23857 | 21.18205 | 37054 ft | 466 kts | 126° |
| 2026-05-08 10:07 | 44.20489 | 21.25889 | 37052 ft | 466 kts | 126° |
| 2026-05-08 10:08 | 44.17115 | 21.33562 | 37046 ft | 466 kts | 126° |
| 2026-05-08 10:08 | 44.13737 | 21.41229 | 37043 ft | 466 kts | 126° |
| 2026-05-08 10:09 | 44.10348 | 21.48899 | 37046 ft | 467 kts | 126° |
| 2026-05-08 10:09 | 44.06956 | 21.56554 | 37050 ft | 467 kts | 126° |
| 2026-05-08 10:10 | 44.03559 | 21.64202 | 37051 ft | 466 kts | 126° |
| 2026-05-08 10:10 | 44.00159 | 21.71837 | 37061 ft | 465 kts | 126° |
| 2026-05-08 10:11 | 43.96769 | 21.79425 | 37074 ft | 465 kts | 126° |
| 2026-05-08 10:11 | 43.93367 | 21.87023 | 37066 ft | 466 kts | 126° |
| 2026-05-08 10:12 | 43.89961 | 21.94611 | 37059 ft | 465 kts | 126° |
| 2026-05-08 10:12 | 43.86537 | 22.02218 | 37052 ft | 465 kts | 126° |
| 2026-05-08 10:13 | 43.83121 | 22.09786 | 37053 ft | 465 kts | 126° |
| 2026-05-08 10:13 | 43.79696 | 22.17354 | 37050 ft | 466 kts | 126° |
| 2026-05-08 10:14 | 43.76263 | 22.24920 | 37053 ft | 466 kts | 126° |
| 2026-05-08 10:14 | 43.72826 | 22.32482 | 37053 ft | 466 kts | 126° |
| 2026-05-08 10:15 | 43.69734 | 22.40357 | 37053 ft | 470 kts | 118° |
| 2026-05-08 10:15 | 43.67312 | 22.48749 | 37053 ft | 474 kts | 111° |
| 2026-05-08 10:16 | 43.65528 | 22.57508 | 37059 ft | 476 kts | 107° |
| 2026-05-08 10:16 | 43.63862 | 22.66315 | 37056 ft | 476 kts | 108° |
| 2026-05-08 10:17 | 43.62188 | 22.75063 | 37058 ft | 476 kts | 108° |
| 2026-05-08 10:17 | 43.60489 | 22.83855 | 37052 ft | 476 kts | 108° |
| 2026-05-08 10:18 | 43.58776 | 22.92672 | 37052 ft | 477 kts | 108° |
| 2026-05-08 10:18 | 43.57056 | 23.01473 | 37058 ft | 478 kts | 108° |
| 2026-05-08 10:19 | 43.55326 | 23.10280 | 37056 ft | 478 kts | 108° |
| 2026-05-08 10:20 | 43.52723 | 23.23470 | 37045 ft | 477 kts | 108° |
| 2026-05-08 10:20 | 43.50979 | 23.32258 | 37039 ft | 477 kts | 108° |
| 2026-05-08 10:21 | 43.49229 | 23.41039 | 37033 ft | 478 kts | 108° |
| 2026-05-08 10:21 | 43.47470 | 23.49820 | 37033 ft | 478 kts | 108° |
| 2026-05-08 10:22 | 43.45703 | 23.58603 | 37028 ft | 478 kts | 108° |
| 2026-05-08 10:22 | 43.43930 | 23.67390 | 37036 ft | 479 kts | 109° |
| 2026-05-08 10:23 | 43.42146 | 23.76179 | 37041 ft | 479 kts | 109° |
| 2026-05-08 10:23 | 43.40355 | 23.84961 | 37035 ft | 479 kts | 109° |
| 2026-05-08 10:24 | 43.38508 | 23.93716 | 37048 ft | 478 kts | 111° |
| 2026-05-08 10:24 | 43.36423 | 24.02364 | 37041 ft | 479 kts | 112° |
| 2026-05-08 10:25 | 43.34316 | 24.11007 | 37048 ft | 479 kts | 111° |
| 2026-05-08 10:25 | 43.32202 | 24.19662 | 37035 ft | 480 kts | 111° |
| 2026-05-08 10:26 | 43.30083 | 24.28316 | 37037 ft | 480 kts | 111° |
| 2026-05-08 10:26 | 43.27955 | 24.36974 | 37041 ft | 481 kts | 111° |
| 2026-05-08 10:27 | 43.25820 | 24.45630 | 37041 ft | 481 kts | 111° |
| 2026-05-08 10:27 | 43.23676 | 24.54294 | 37043 ft | 482 kts | 111° |
| 2026-05-08 10:28 | 43.21521 | 24.62959 | 37044 ft | 482 kts | 111° |
| 2026-05-08 10:28 | 43.19362 | 24.71623 | 37047 ft | 482 kts | 112° |
| 2026-05-08 10:29 | 43.17191 | 24.80282 | 37050 ft | 483 kts | 112° |
| 2026-05-08 10:29 | 43.15065 | 24.88984 | 37049 ft | 486 kts | 109° |
| 2026-05-08 10:30 | 43.13606 | 24.97997 | 37051 ft | 489 kts | 100° |
| 2026-05-08 10:30 | 43.13079 | 25.07247 | 37048 ft | 490 kts | 91° |
| 2026-05-08 10:31 | 43.13369 | 25.16538 | 37050 ft | 490 kts | 86° |
| 2026-05-08 10:31 | 43.13768 | 25.25816 | 37048 ft | 490 kts | 88° |
| 2026-05-08 10:32 | 43.14102 | 25.35109 | 37050 ft | 490 kts | 88° |
| 2026-05-08 10:32 | 43.14424 | 25.44334 | 37051 ft | 491 kts | 87° |
| 2026-05-08 10:33 | 43.14746 | 25.53636 | 37051 ft | 491 kts | 87° |
| 2026-05-08 10:33 | 43.15059 | 25.62946 | 37050 ft | 492 kts | 87° |
| 2026-05-08 10:34 | 43.15367 | 25.72272 | 37051 ft | 492 kts | 87° |
| 2026-05-08 10:34 | 43.15781 | 25.81579 | 37049 ft | 492 kts | 86° |
| 2026-05-08 10:35 | 43.16213 | 25.90884 | 37049 ft | 491 kts | 86° |
| 2026-05-08 10:35 | 43.16622 | 26.00183 | 37048 ft | 491 kts | 86° |
| 2026-05-08 10:36 | 43.17016 | 26.09481 | 37047 ft | 491 kts | 86° |
| 2026-05-08 10:36 | 43.17390 | 26.18782 | 37054 ft | 491 kts | 87° |
| 2026-05-08 10:37 | 43.17674 | 26.28090 | 37053 ft | 491 kts | 87° |
| 2026-05-08 10:37 | 43.17948 | 26.37410 | 37060 ft | 492 kts | 87° |
| 2026-05-08 10:38 | 43.18225 | 26.46743 | 37056 ft | 493 kts | 87° |
| 2026-05-08 10:38 | 43.18492 | 26.56088 | 37054 ft | 493 kts | 87° |
| 2026-05-08 10:39 | 43.18754 | 26.65437 | 37049 ft | 493 kts | 87° |
| 2026-05-08 10:39 | 43.19122 | 26.74753 | 36867 ft | 486 kts | 86° |
| 2026-05-08 10:39 | 43.19315 | 26.79307 | 35937 ft | 480 kts | 86° |
| 2026-05-08 10:40 | 43.19502 | 26.83853 | 34502 ft | 488 kts | 86° |
| 2026-05-08 10:40 | 43.19686 | 26.88490 | 32510 ft | 498 kts | 86° |
| 2026-05-08 10:40 | 43.19864 | 26.93160 | 31105 ft | 489 kts | 87° |
| 2026-05-08 10:40 | 43.20037 | 26.97677 | 30313 ft | 468 kts | 86° |
| 2026-05-08 10:41 | 43.20206 | 27.02038 | 29405 ft | 453 kts | 86° |
| 2026-05-08 10:41 | 43.20633 | 27.06202 | 28536 ft | 437 kts | 70° |
| 2026-05-08 10:41 | 43.21971 | 27.09785 | 27716 ft | 417 kts | 50° |
| 2026-05-08 10:41 | 43.23814 | 27.12732 | 26954 ft | 402 kts | 45° |
| 2026-05-08 10:42 | 43.25618 | 27.15531 | 26313 ft | 387 kts | 47° |
| 2026-05-08 10:42 | 43.27301 | 27.18353 | 25521 ft | 384 kts | 50° |
| 2026-05-08 10:42 | 43.28638 | 27.21482 | 24944 ft | 384 kts | 71° |
| 2026-05-08 10:42 | 43.28936 | 27.25050 | 24541 ft | 378 kts | 96° |
| 2026-05-08 10:43 | 43.28402 | 27.28530 | 24182 ft | 371 kts | 104° |
| 2026-05-08 10:43 | 43.27739 | 27.31904 | 23847 ft | 364 kts | 111° |
| 2026-05-08 10:43 | 43.26434 | 27.34784 | 23506 ft | 354 kts | 137° |
| 2026-05-08 10:43 | 43.24398 | 27.36517 | 23184 ft | 342 kts | 165° |
| 2026-05-08 10:44 | 43.22090 | 27.36865 | 22879 ft | 331 kts | 188° |
| 2026-05-08 10:44 | 43.19927 | 27.36032 | 22571 ft | 320 kts | 209° |
| 2026-05-08 10:44 | 43.18185 | 27.34242 | 22267 ft | 311 kts | 230° |
| 2026-05-08 10:44 | 43.17063 | 27.31791 | 21965 ft | 303 kts | 250° |
| 2026-05-08 10:45 | 43.16660 | 27.29020 | 21662 ft | 296 kts | 270° |
| 2026-05-08 10:45 | 43.16837 | 27.26243 | 21382 ft | 291 kts | 276° |
| 2026-05-08 10:45 | 43.17088 | 27.23521 | 21092 ft | 287 kts | 276° |
| 2026-05-08 10:45 | 43.17328 | 27.20838 | 20815 ft | 283 kts | 276° |
| 2026-05-08 10:46 | 43.17554 | 27.18192 | 20514 ft | 279 kts | 276° |
| 2026-05-08 10:46 | 43.17772 | 27.15570 | 20194 ft | 277 kts | 277° |
| 2026-05-08 10:46 | 43.18283 | 27.13049 | 19817 ft | 278 kts | 296° |
| 2026-05-08 10:46 | 43.19415 | 27.10932 | 19477 ft | 278 kts | 316° |
| 2026-05-08 10:47 | 43.21010 | 27.09458 | 19138 ft | 279 kts | 335° |
| 2026-05-08 10:47 | 43.22890 | 27.08806 | 18788 ft | 282 kts | 355° |
| 2026-05-08 10:47 | 43.24835 | 27.09075 | 18428 ft | 284 kts | 16° |
| 2026-05-08 10:47 | 43.26600 | 27.10240 | 18042 ft | 283 kts | 36° |
| 2026-05-08 10:48 | 43.27972 | 27.12164 | 17310 ft | 290 kts | 57° |
| 2026-05-08 10:48 | 43.28773 | 27.14709 | 16422 ft | 299 kts | 79° |
| 2026-05-08 10:48 | 43.28860 | 27.17535 | 15614 ft | 300 kts | 97° |
| 2026-05-08 10:48 | 43.28606 | 27.20349 | 14958 ft | 298 kts | 98° |
| 2026-05-08 10:49 | 43.28370 | 27.23142 | 14334 ft | 295 kts | 94° |
| 2026-05-08 10:49 | 43.28235 | 27.25921 | 13702 ft | 292 kts | 94° |
| 2026-05-08 10:49 | 43.28088 | 27.28668 | 13086 ft | 288 kts | 95° |
| 2026-05-08 10:49 | 43.27903 | 27.31378 | 12469 ft | 285 kts | 96° |
| 2026-05-08 10:50 | 43.27684 | 27.34049 | 11861 ft | 281 kts | 97° |
| 2026-05-08 10:50 | 43.27449 | 27.36643 | 11485 ft | 269 kts | 97° |
| 2026-05-08 10:50 | 43.27135 | 27.39924 | 10994 ft | 255 kts | 98° |
| 2026-05-08 10:50 | 43.26980 | 27.41519 | 10750 ft | 249 kts | 98° |
| 2026-05-08 10:51 | 43.26755 | 27.43825 | 10401 ft | 241 kts | 98° |
| 2026-05-08 10:51 | 43.26541 | 27.46029 | 10204 ft | 223 kts | 98° |
| 2026-05-08 10:51 | 43.26343 | 27.48092 | 9955 ft | 214 kts | 98° |
| 2026-05-08 10:51 | 43.26156 | 27.50056 | 9643 ft | 202 kts | 98° |
| 2026-05-08 10:52 | 43.25980 | 27.51918 | 9281 ft | 193 kts | 98° |
| 2026-05-08 10:52 | 43.25813 | 27.53701 | 8942 ft | 185 kts | 98° |
| 2026-05-08 10:52 | 43.25654 | 27.55412 | 8605 ft | 178 kts | 98° |
| 2026-05-08 10:52 | 43.25502 | 27.57056 | 8283 ft | 171 kts | 98° |
| 2026-05-08 10:53 | 43.25356 | 27.58635 | 7981 ft | 164 kts | 98° |
| 2026-05-08 10:53 | 43.25216 | 27.60162 | 7568 ft | 167 kts | 98° |
| 2026-05-08 10:53 | 43.25062 | 27.61821 | 6835 ft | 185 kts | 98° |
| 2026-05-08 10:53 | 43.24902 | 27.63565 | 6317 ft | 187 kts | 99° |
| 2026-05-08 10:54 | 43.24740 | 27.65356 | 5707 ft | 193 kts | 99° |
| 2026-05-08 10:54 | 43.24579 | 27.67160 | 5227 ft | 189 kts | 96° |
| 2026-05-08 10:54 | 43.24866 | 27.68819 | 4952 ft | 177 kts | 57° |
| 2026-05-08 10:54 | 43.25851 | 27.69601 | 4634 ft | 165 kts | 359° |
| 2026-05-08 10:55 | 43.26778 | 27.68902 | 4204 ft | 156 kts | 296° |
| 2026-05-08 10:55 | 43.26728 | 27.67532 | 3725 ft | 151 kts | 231° |
| 2026-05-08 10:55 | 43.25810 | 27.67069 | 3258 ft | 150 kts | 166° |
| 2026-05-08 10:55 | 43.24984 | 27.67857 | 2900 ft | 148 kts | 126° |
| 2026-05-08 10:56 | 43.24580 | 27.69175 | 2443 ft | 153 kts | 111° |
| 2026-05-08 10:56 | 43.24263 | 27.70551 | 2078 ft | 151 kts | 103° |
| 2026-05-08 10:56 | 43.24175 | 27.71956 | 1776 ft | 145 kts | 97° |
| 2026-05-08 10:56 | 43.24075 | 27.73304 | 1467 ft | 140 kts | 98° |
| 2026-05-08 10:57 | 43.23949 | 27.74612 | 1184 ft | 139 kts | 102° |
| 2026-05-08 10:57 | 43.23786 | 27.75896 | 934 ft | 136 kts | 99° |
| 2026-05-08 10:57 | 43.23559 | 27.78461 | 600 ft | 135 kts | 98° |
| 2026-05-08 10:58 | 43.23445 | 27.79732 | 433 ft | 135 kts | 98° |
| 2026-05-08 10:58 | 43.23333 | 27.80980 | 247 ft | 128 kts | 98° |
| 2026-05-08 10:58 | 43.23235 | 27.82075 | 226 ft | 95 kts | 97° |
| 2026-05-08 10:58 | 43.23177 | 27.82743 | 235 ft | 48 kts | 97° |
| 2026-05-08 10:59 | 43.23140 | 27.83156 | 238 ft | 29 kts | 97° |
| 2026-05-08 10:59 | 43.23159 | 27.83281 | 239 ft | 11 kts | 25° |
| 2026-05-08 10:59 | 43.23233 | 27.83295 | 242 ft | 9 kts | 6° |
| 2026-05-08 10:59 | 43.23313 | 27.83308 | 245 ft | 7 kts | 7° |
| 2026-05-08 11:00 | 43.23346 | 27.83313 | 246 ft | 6 kts | 358° |
| 2026-05-08 11:00 | 43.23382 | 27.83287 | 249 ft | 5 kts | 330° |
| 2026-05-08 11:00 | 43.23420 | 27.83265 | 251 ft | 5 kts | 338° |
| 2026-05-08 11:00 | 43.23453 | 27.83246 | 253 ft | 4 kts | 338° |
| 2026-05-08 11:01 | 43.23471 | 27.83235 | 254 ft | 1 kts | 337° |
| 2026-05-08 11:01 | 43.23472 | 27.83235 | 254 ft | 0 kts | 338° |